sensor_id;sensor_type;location;lat;lon;timestamp;temperature;humidity
13976;DHT22;7062;49.792;9.946;2023-01-01T00:02:04;13.30;99.90
13976;DHT22;7062;49.792;9.946;2023-01-01T00:04:31;13.30;99.90
13976;DHT22;7062;49.792;9.946;2023-01-01T00:06:59;13.20;99.90
13976;DHT22;7062;49.792;9.946;2023-01-01T00:09:25;13.20;99.90
13976;DHT22;7062;49.792;9.946;2023-01-01T00:12:09;13.10;99.90
13976;DHT22;7062;49.792;9.946;2023-01-01T00:14:34;13.10;99.90
13976;DHT22;7062;49.792;9.946;2023-01-01T00:17:00;13.20;99.90
13976;DHT22;7062;49.792;9.946;2023-01-01T00:19:26;13.10;99.90
13976;DHT22;7062;49.792;9.946;2023-01-01T00:21:52;13.20;99.90
13976;DHT22;7062;49.792;9.946;2023-01-01T00:24:18;13.20;99.90
13976;DHT22;7062;49.792;9.946;2023-01-01T00:26:44;13.30;99.90
13976;DHT22;7062;49.792;9.946;2023-01-01T00:29:10;13.30;99.90
13976;DHT22;7062;49.792;9.946;2023-01-01T00:31:35;13.30;99.90
13976;DHT22;7062;49.792;9.946;2023-01-01T00:34:01;13.30;99.90
13976;DHT22;7062;49.792;9.946;2023-01-01T00:36:28;13.30;99.90
13976;DHT22;7062;49.792;9.946;2023-01-01T00:38:54;13.30;99.90
13976;DHT22;7062;49.792;9.946;2023-01-01T00:41:20;13.30;99.90
13976;DHT22;7062;49.792;9.946;2023-01-01T00:43:46;13.30;99.90
13976;DHT22;7062;49.792;9.946;2023-01-01T00:46:12;13.30;99.90
13976;DHT22;7062;49.792;9.946;2023-01-01T00:48:38;13.30;99.90
13976;DHT22;7062;49.792;9.946;2023-01-01T00:51:04;13.30;99.90
13976;DHT22;7062;49.792;9.946;2023-01-01T00:53:30;13.30;99.90
13976;DHT22;7062;49.792;9.946;2023-01-01T00:55:56;13.30;99.90
13976;DHT22;7062;49.792;9.946;2023-01-01T00:58:23;13.30;99.90
13976;DHT22;7062;49.792;9.946;2023-01-01T01:00:50;13.30;99.90
13976;DHT22;7062;49.792;9.946;2023-01-01T01:03:16;13.30;99.90
13976;DHT22;7062;49.792;9.946;2023-01-01T01:08:30;13.30;99.90
13976;DHT22;7062;49.792;9.946;2023-01-01T01:11:04;13.40;99.90
13976;DHT22;7062;49.792;9.946;2023-01-01T01:13:29;13.50;99.90
13976;DHT22;7062;49.792;9.946;2023-01-01T01:15:55;13.60;99.90
13976;DHT22;7062;49.792;9.946;2023-01-01T01:18:20;13.60;99.90
13976;DHT22;7062;49.792;9.946;2023-01-01T01:20:53;13.60;99.90
13976;DHT22;7062;49.792;9.946;2023-01-01T01:23:19;13.60;99.90
13976;DHT22;7062;49.792;9.946;2023-01-01T01:25:45;13.70;99.90
13976;DHT22;7062;49.792;9.946;2023-01-01T01:28:11;13.80;99.90
13976;DHT22;7062;49.792;9.946;2023-01-01T01:30:37;13.80;99.90
13976;DHT22;7062;49.792;9.946;2023-01-01T01:33:03;13.90;99.90
13976;DHT22;7062;49.792;9.946;2023-01-01T01:35:28;13.90;99.90
13976;DHT22;7062;49.792;9.946;2023-01-01T01:37:55;13.90;99.90
13976;DHT22;7062;49.792;9.946;2023-01-01T01:40:20;14.00;99.90
13976;DHT22;7062;49.792;9.946;2023-01-01T01:42:47;13.90;99.90
13976;DHT22;7062;49.792;9.946;2023-01-01T01:45:13;13.90;99.90
13976;DHT22;7062;49.792;9.946;2023-01-01T01:47:57;13.90;99.90
13976;DHT22;7062;49.792;9.946;2023-01-01T01:50:33;13.80;99.90
13976;DHT22;7062;49.792;9.946;2023-01-01T01:53:28;13.80;99.90
13976;DHT22;7062;49.792;9.946;2023-01-01T01:55:59;13.80;99.90
13976;DHT22;7062;49.792;9.946;2023-01-01T01:58:27;13.80;99.90
13976;DHT22;7062;49.792;9.946;2023-01-01T02:00:53;13.80;99.90
13976;DHT22;7062;49.792;9.946;2023-01-01T02:03:45;13.80;99.90
13976;DHT22;7062;49.792;9.946;2023-01-01T02:06:13;13.70;99.90
13976;DHT22;7062;49.792;9.946;2023-01-01T02:08:39;13.70;99.90
13976;DHT22;7062;49.792;9.946;2023-01-01T02:11:05;13.70;99.90
13976;DHT22;7062;49.792;9.946;2023-01-01T02:13:31;13.70;99.90
13976;DHT22;7062;49.792;9.946;2023-01-01T02:18:42;13.40;99.90
13976;DHT22;7062;49.792;9.946;2023-01-01T02:21:19;13.50;99.90
13976;DHT22;7062;49.792;9.946;2023-01-01T02:32:19;13.40;99.90
13976;DHT22;7062;49.792;9.946;2023-01-01T02:35:03;13.30;99.90
13976;DHT22;7062;49.792;9.946;2023-01-01T02:37:52;13.30;99.90
13976;DHT22;7062;49.792;9.946;2023-01-01T02:40:22;13.20;99.90
13976;DHT22;7062;49.792;9.946;2023-01-01T02:42:48;13.20;99.90
13976;DHT22;7062;49.792;9.946;2023-01-01T02:45:14;13.10;99.90
13976;DHT22;7062;49.792;9.946;2023-01-01T02:47:40;13.10;99.90
13976;DHT22;7062;49.792;9.946;2023-01-01T02:50:14;13.10;99.90
13976;DHT22;7062;49.792;9.946;2023-01-01T02:52:58;13.00;99.90
13976;DHT22;7062;49.792;9.946;2023-01-01T02:55:31;13.00;99.90
13976;DHT22;7062;49.792;9.946;2023-01-01T03:01:21;13.00;99.90
13976;DHT22;7062;49.792;9.946;2023-01-01T03:04:20;12.90;99.90
13976;DHT22;7062;49.792;9.946;2023-01-01T03:06:54;12.80;99.90
13976;DHT22;7062;49.792;9.946;2023-01-01T03:14:45;12.80;99.90
13976;DHT22;7062;49.792;9.946;2023-01-01T03:19:58;13.10;99.90
13976;DHT22;7062;49.792;9.946;2023-01-01T03:22:29;13.20;99.90
13976;DHT22;7062;49.792;9.946;2023-01-01T03:27:56;13.50;99.90
13976;DHT22;7062;49.792;9.946;2023-01-01T03:30:24;13.60;99.90
13976;DHT22;7062;49.792;9.946;2023-01-01T03:33:02;13.80;99.90
13976;DHT22;7062;49.792;9.946;2023-01-01T03:35:39;13.80;99.90
13976;DHT22;7062;49.792;9.946;2023-01-01T03:38:12;13.80;99.90
13976;DHT22;7062;49.792;9.946;2023-01-01T03:40:39;13.70;99.90
13976;DHT22;7062;49.792;9.946;2023-01-01T03:43:17;13.80;99.90
13976;DHT22;7062;49.792;9.946;2023-01-01T03:45:45;13.80;99.90
13976;DHT22;7062;49.792;9.946;2023-01-01T03:48:13;13.80;99.90
13976;DHT22;7062;49.792;9.946;2023-01-01T03:53:22;13.80;99.90
13976;DHT22;7062;49.792;9.946;2023-01-01T03:56:18;13.80;99.90
13976;DHT22;7062;49.792;9.946;2023-01-01T03:58:53;13.70;99.90
13976;DHT22;7062;49.792;9.946;2023-01-01T04:01:25;13.70;99.90
13976;DHT22;7062;49.792;9.946;2023-01-01T04:03:52;13.70;99.90
13976;DHT22;7062;49.792;9.946;2023-01-01T04:06:18;13.70;99.90
13976;DHT22;7062;49.792;9.946;2023-01-01T04:08:45;13.70;99.90
13976;DHT22;7062;49.792;9.946;2023-01-01T04:11:22;13.70;99.90
13976;DHT22;7062;49.792;9.946;2023-01-01T04:14:07;13.70;99.90
13976;DHT22;7062;49.792;9.946;2023-01-01T04:16:33;13.70;99.90
13976;DHT22;7062;49.792;9.946;2023-01-01T04:18:58;13.70;99.90
13976;DHT22;7062;49.792;9.946;2023-01-01T04:21:24;13.70;99.90
13976;DHT22;7062;49.792;9.946;2023-01-01T04:23:50;13.70;99.90
13976;DHT22;7062;49.792;9.946;2023-01-01T04:26:15;13.60;99.90
13976;DHT22;7062;49.792;9.946;2023-01-01T04:28:41;13.60;99.90
13976;DHT22;7062;49.792;9.946;2023-01-01T04:31:09;13.60;99.90
13976;DHT22;7062;49.792;9.946;2023-01-01T04:33:36;13.60;99.90
13976;DHT22;7062;49.792;9.946;2023-01-01T04:36:06;13.60;99.90
13976;DHT22;7062;49.792;9.946;2023-01-01T04:38:34;13.50;99.90
13976;DHT22;7062;49.792;9.946;2023-01-01T04:41:01;13.50;99.90
13976;DHT22;7062;49.792;9.946;2023-01-01T04:43:27;13.40;99.90
13976;DHT22;7062;49.792;9.946;2023-01-01T04:45:57;13.40;99.90
13976;DHT22;7062;49.792;9.946;2023-01-01T04:48:23;13.30;99.90
13976;DHT22;7062;49.792;9.946;2023-01-01T04:50:56;13.20;99.90
13976;DHT22;7062;49.792;9.946;2023-01-01T04:53:22;13.20;99.90
13976;DHT22;7062;49.792;9.946;2023-01-01T04:55:47;13.20;99.90
13976;DHT22;7062;49.792;9.946;2023-01-01T04:58:13;13.20;99.90
13976;DHT22;7062;49.792;9.946;2023-01-01T05:00:38;13.10;99.90
13976;DHT22;7062;49.792;9.946;2023-01-01T05:03:04;13.10;99.90
13976;DHT22;7062;49.792;9.946;2023-01-01T05:05:29;13.10;99.90
13976;DHT22;7062;49.792;9.946;2023-01-01T05:07:55;13.00;99.90
13976;DHT22;7062;49.792;9.946;2023-01-01T05:10:21;13.00;99.90
13976;DHT22;7062;49.792;9.946;2023-01-01T05:12:46;13.00;99.90
13976;DHT22;7062;49.792;9.946;2023-01-01T05:15:12;13.00;99.90
13976;DHT22;7062;49.792;9.946;2023-01-01T05:17:37;13.00;99.90
13976;DHT22;7062;49.792;9.946;2023-01-01T05:20:03;12.90;99.90
13976;DHT22;7062;49.792;9.946;2023-01-01T05:22:29;12.90;99.90
13976;DHT22;7062;49.792;9.946;2023-01-01T05:24:55;12.80;99.90
13976;DHT22;7062;49.792;9.946;2023-01-01T05:27:20;12.80;99.90
13976;DHT22;7062;49.792;9.946;2023-01-01T05:29:46;12.80;99.90
13976;DHT22;7062;49.792;9.946;2023-01-01T05:32:11;12.80;99.90
13976;DHT22;7062;49.792;9.946;2023-01-01T05:34:37;12.80;99.90
13976;DHT22;7062;49.792;9.946;2023-01-01T05:37:02;12.80;99.90
13976;DHT22;7062;49.792;9.946;2023-01-01T05:39:28;12.80;99.90
13976;DHT22;7062;49.792;9.946;2023-01-01T05:41:54;12.80;99.90
13976;DHT22;7062;49.792;9.946;2023-01-01T05:44:19;12.80;99.90
13976;DHT22;7062;49.792;9.946;2023-01-01T05:46:45;12.70;99.90
13976;DHT22;7062;49.792;9.946;2023-01-01T05:49:11;12.70;99.90
13976;DHT22;7062;49.792;9.946;2023-01-01T05:51:37;12.70;99.90
13976;DHT22;7062;49.792;9.946;2023-01-01T05:54:03;12.70;99.90
13976;DHT22;7062;49.792;9.946;2023-01-01T05:56:28;12.70;99.90
13976;DHT22;7062;49.792;9.946;2023-01-01T05:58:55;12.70;99.90
13976;DHT22;7062;49.792;9.946;2023-01-01T06:01:26;12.70;99.90
13976;DHT22;7062;49.792;9.946;2023-01-01T06:03:53;12.70;99.90
13976;DHT22;7062;49.792;9.946;2023-01-01T06:06:27;12.70;99.90
13976;DHT22;7062;49.792;9.946;2023-01-01T06:08:58;12.60;99.90
13976;DHT22;7062;49.792;9.946;2023-01-01T06:11:25;12.50;99.90
13976;DHT22;7062;49.792;9.946;2023-01-01T06:13:56;12.50;99.90
13976;DHT22;7062;49.792;9.946;2023-01-01T06:16:22;12.50;99.90
13976;DHT22;7062;49.792;9.946;2023-01-01T06:18:48;12.40;99.90
13976;DHT22;7062;49.792;9.946;2023-01-01T06:21:16;12.40;99.90
13976;DHT22;7062;49.792;9.946;2023-01-01T06:23:43;12.40;99.90
13976;DHT22;7062;49.792;9.946;2023-01-01T06:26:16;12.40;99.90
13976;DHT22;7062;49.792;9.946;2023-01-01T06:28:42;12.40;99.90
13976;DHT22;7062;49.792;9.946;2023-01-01T06:31:10;12.30;99.90
13976;DHT22;7062;49.792;9.946;2023-01-01T06:33:37;12.30;99.90
13976;DHT22;7062;49.792;9.946;2023-01-01T06:36:05;12.20;99.90
13976;DHT22;7062;49.792;9.946;2023-01-01T06:38:32;12.20;99.90
13976;DHT22;7062;49.792;9.946;2023-01-01T06:41:00;12.10;99.90
13976;DHT22;7062;49.792;9.946;2023-01-01T06:43:26;12.10;99.90
13976;DHT22;7062;49.792;9.946;2023-01-01T06:46:21;12.10;99.90
13976;DHT22;7062;49.792;9.946;2023-01-01T06:48:49;12.00;99.90
13976;DHT22;7062;49.792;9.946;2023-01-01T06:51:23;12.10;99.90
13976;DHT22;7062;49.792;9.946;2023-01-01T06:53:50;12.10;99.90
13976;DHT22;7062;49.792;9.946;2023-01-01T06:56:16;12.10;99.90
13976;DHT22;7062;49.792;9.946;2023-01-01T06:58:43;12.10;99.90
13976;DHT22;7062;49.792;9.946;2023-01-01T07:01:19;12.10;99.90
13976;DHT22;7062;49.792;9.946;2023-01-01T07:03:53;12.00;99.90
13976;DHT22;7062;49.792;9.946;2023-01-01T07:06:19;12.00;99.90
13976;DHT22;7062;49.792;9.946;2023-01-01T07:08:45;12.00;99.90
13976;DHT22;7062;49.792;9.946;2023-01-01T07:11:11;12.00;99.90
13976;DHT22;7062;49.792;9.946;2023-01-01T07:13:36;12.00;99.90
13976;DHT22;7062;49.792;9.946;2023-01-01T07:16:03;12.00;99.90
13976;DHT22;7062;49.792;9.946;2023-01-01T07:18:29;12.00;99.90
13976;DHT22;7062;49.792;9.946;2023-01-01T07:21:00;12.00;99.90
13976;DHT22;7062;49.792;9.946;2023-01-01T07:23:28;12.00;99.90
13976;DHT22;7062;49.792;9.946;2023-01-01T07:25:55;12.10;99.90
13976;DHT22;7062;49.792;9.946;2023-01-01T07:28:22;12.10;99.90
13976;DHT22;7062;49.792;9.946;2023-01-01T07:30:48;12.20;99.90
13976;DHT22;7062;49.792;9.946;2023-01-01T07:33:17;12.20;99.90
13976;DHT22;7062;49.792;9.946;2023-01-01T07:35:43;12.30;99.90
13976;DHT22;7062;49.792;9.946;2023-01-01T07:38:10;12.30;99.90
13976;DHT22;7062;49.792;9.946;2023-01-01T07:40:36;12.40;99.90
13976;DHT22;7062;49.792;9.946;2023-01-01T07:43:01;12.40;99.90
13976;DHT22;7062;49.792;9.946;2023-01-01T07:45:27;12.50;99.90
13976;DHT22;7062;49.792;9.946;2023-01-01T07:47:54;12.50;99.90
13976;DHT22;7062;49.792;9.946;2023-01-01T07:50:21;12.50;99.90
13976;DHT22;7062;49.792;9.946;2023-01-01T07:52:47;12.50;99.90
13976;DHT22;7062;49.792;9.946;2023-01-01T07:55:15;12.50;99.90
13976;DHT22;7062;49.792;9.946;2023-01-01T07:57:42;12.50;99.90
13976;DHT22;7062;49.792;9.946;2023-01-01T08:00:10;12.40;99.90
13976;DHT22;7062;49.792;9.946;2023-01-01T08:02:36;12.50;99.90
13976;DHT22;7062;49.792;9.946;2023-01-01T08:05:02;12.50;99.90
13976;DHT22;7062;49.792;9.946;2023-01-01T08:07:27;12.40;99.90
13976;DHT22;7062;49.792;9.946;2023-01-01T08:09:53;12.50;99.90
13976;DHT22;7062;49.792;9.946;2023-01-01T08:12:19;12.50;99.90
13976;DHT22;7062;49.792;9.946;2023-01-01T08:14:44;12.60;99.90
13976;DHT22;7062;49.792;9.946;2023-01-01T08:17:10;12.60;99.90
13976;DHT22;7062;49.792;9.946;2023-01-01T08:19:35;12.60;99.90
13976;DHT22;7062;49.792;9.946;2023-01-01T08:22:01;12.60;99.90
13976;DHT22;7062;49.792;9.946;2023-01-01T08:24:26;12.70;99.90
13976;DHT22;7062;49.792;9.946;2023-01-01T08:26:52;12.70;99.90
13976;DHT22;7062;49.792;9.946;2023-01-01T08:29:18;12.70;99.90
13976;DHT22;7062;49.792;9.946;2023-01-01T08:31:44;12.80;99.90
13976;DHT22;7062;49.792;9.946;2023-01-01T08:34:10;12.80;99.90
13976;DHT22;7062;49.792;9.946;2023-01-01T08:36:36;12.80;99.90
13976;DHT22;7062;49.792;9.946;2023-01-01T08:39:05;12.70;99.90
13976;DHT22;7062;49.792;9.946;2023-01-01T08:41:31;12.70;99.90
13976;DHT22;7062;49.792;9.946;2023-01-01T08:43:56;12.70;99.90
13976;DHT22;7062;49.792;9.946;2023-01-01T08:46:22;12.70;99.90
13976;DHT22;7062;49.792;9.946;2023-01-01T08:48:47;12.80;99.90
13976;DHT22;7062;49.792;9.946;2023-01-01T08:51:13;12.90;99.90
13976;DHT22;7062;49.792;9.946;2023-01-01T08:53:39;12.90;99.90
13976;DHT22;7062;49.792;9.946;2023-01-01T08:56:07;13.00;99.90
13976;DHT22;7062;49.792;9.946;2023-01-01T08:58:35;13.10;99.90
13976;DHT22;7062;49.792;9.946;2023-01-01T09:01:01;13.10;99.90
13976;DHT22;7062;49.792;9.946;2023-01-01T09:03:27;13.30;99.90
13976;DHT22;7062;49.792;9.946;2023-01-01T09:05:53;13.50;99.90
13976;DHT22;7062;49.792;9.946;2023-01-01T09:08:19;13.50;99.90
13976;DHT22;7062;49.792;9.946;2023-01-01T09:10:46;13.50;99.90
13976;DHT22;7062;49.792;9.946;2023-01-01T09:13:14;13.70;99.90
13976;DHT22;7062;49.792;9.946;2023-01-01T09:15:40;13.70;99.90
13976;DHT22;7062;49.792;9.946;2023-01-01T09:18:09;13.80;99.90
13976;DHT22;7062;49.792;9.946;2023-01-01T09:20:35;13.90;99.90
13976;DHT22;7062;49.792;9.946;2023-01-01T09:23:01;13.90;99.90
13976;DHT22;7062;49.792;9.946;2023-01-01T09:25:27;13.80;99.90
13976;DHT22;7062;49.792;9.946;2023-01-01T09:27:56;13.70;99.90
13976;DHT22;7062;49.792;9.946;2023-01-01T09:30:22;13.70;99.90
13976;DHT22;7062;49.792;9.946;2023-01-01T09:32:48;13.90;99.90
13976;DHT22;7062;49.792;9.946;2023-01-01T09:35:14;14.00;99.90
13976;DHT22;7062;49.792;9.946;2023-01-01T09:37:40;14.00;99.90
13976;DHT22;7062;49.792;9.946;2023-01-01T09:40:06;13.90;99.90
13976;DHT22;7062;49.792;9.946;2023-01-01T09:45:04;14.00;99.90
13976;DHT22;7062;49.792;9.946;2023-01-01T09:47:41;14.00;99.90
13976;DHT22;7062;49.792;9.946;2023-01-01T09:50:18;14.00;99.90
13976;DHT22;7062;49.792;9.946;2023-01-01T09:52:46;14.10;99.90
13976;DHT22;7062;49.792;9.946;2023-01-01T09:55:41;14.10;99.90
13976;DHT22;7062;49.792;9.946;2023-01-01T09:58:10;14.10;99.90
13976;DHT22;7062;49.792;9.946;2023-01-01T10:00:37;14.20;99.90
13976;DHT22;7062;49.792;9.946;2023-01-01T10:08:38;14.50;99.90
13976;DHT22;7062;49.792;9.946;2023-01-01T10:13:52;14.60;99.90
13976;DHT22;7062;49.792;9.946;2023-01-01T10:16:39;14.80;99.90
13976;DHT22;7062;49.792;9.946;2023-01-01T10:21:58;15.10;99.90
13976;DHT22;7062;49.792;9.946;2023-01-01T10:24:36;15.20;99.90
13976;DHT22;7062;49.792;9.946;2023-01-01T10:27:04;15.30;99.90
13976;DHT22;7062;49.792;9.946;2023-01-01T10:29:43;15.50;99.90
13976;DHT22;7062;49.792;9.946;2023-01-01T10:32:32;15.70;99.90
13976;DHT22;7062;49.792;9.946;2023-01-01T10:35:00;16.00;99.90
13976;DHT22;7062;49.792;9.946;2023-01-01T10:37:33;16.40;99.90
13976;DHT22;7062;49.792;9.946;2023-01-01T10:40:09;17.50;99.90
13976;DHT22;7062;49.792;9.946;2023-01-01T10:42:38;18.30;99.90
13976;DHT22;7062;49.792;9.946;2023-01-01T10:45:04;18.90;99.90
13976;DHT22;7062;49.792;9.946;2023-01-01T10:47:29;19.00;99.90
13976;DHT22;7062;49.792;9.946;2023-01-01T10:49:57;19.40;99.90
13976;DHT22;7062;49.792;9.946;2023-01-01T10:52:26;19.90;99.90
13976;DHT22;7062;49.792;9.946;2023-01-01T10:54:52;19.40;99.90
13976;DHT22;7062;49.792;9.946;2023-01-01T10:59:44;20.40;99.90
13976;DHT22;7062;49.792;9.946;2023-01-01T11:04:40;20.30;99.90
13976;DHT22;7062;49.792;9.946;2023-01-01T11:07:06;20.60;99.90
13976;DHT22;7062;49.792;9.946;2023-01-01T11:09:32;20.00;99.90
13976;DHT22;7062;49.792;9.946;2023-01-01T11:12:05;20.00;99.90
13976;DHT22;7062;49.792;9.946;2023-01-01T11:14:37;19.90;99.90
13976;DHT22;7062;49.792;9.946;2023-01-01T11:17:03;19.40;99.90
13976;DHT22;7062;49.792;9.946;2023-01-01T11:19:32;19.70;99.90
13976;DHT22;7062;49.792;9.946;2023-01-01T11:21:59;20.00;99.90
13976;DHT22;7062;49.792;9.946;2023-01-01T11:24:27;19.00;99.90
13976;DHT22;7062;49.792;9.946;2023-01-01T11:27:20;18.20;99.90
13976;DHT22;7062;49.792;9.946;2023-01-01T11:29:46;17.60;99.90
13976;DHT22;7062;49.792;9.946;2023-01-01T11:32:26;17.40;99.90
13976;DHT22;7062;49.792;9.946;2023-01-01T11:35:00;17.40;99.90
13976;DHT22;7062;49.792;9.946;2023-01-01T11:37:31;17.10;99.90
13976;DHT22;7062;49.792;9.946;2023-01-01T11:39:59;17.10;99.90
13976;DHT22;7062;49.792;9.946;2023-01-01T11:42:33;17.10;99.90
13976;DHT22;7062;49.792;9.946;2023-01-01T11:45:02;17.00;99.90
13976;DHT22;7062;49.792;9.946;2023-01-01T11:47:34;17.00;99.90
13976;DHT22;7062;49.792;9.946;2023-01-01T11:52:46;16.90;99.90
13976;DHT22;7062;49.792;9.946;2023-01-01T11:55:23;16.90;99.90
13976;DHT22;7062;49.792;9.946;2023-01-01T11:58:08;16.90;99.90
13976;DHT22;7062;49.792;9.946;2023-01-01T12:00:37;17.00;99.90
13976;DHT22;7062;49.792;9.946;2023-01-01T12:03:16;17.00;99.90
13976;DHT22;7062;49.792;9.946;2023-01-01T12:05:51;17.00;99.90
13976;DHT22;7062;49.792;9.946;2023-01-01T12:08:44;17.10;99.90
13976;DHT22;7062;49.792;9.946;2023-01-01T12:13:56;17.00;99.90
13976;DHT22;7062;49.792;9.946;2023-01-01T12:19:27;17.10;99.90
13976;DHT22;7062;49.792;9.946;2023-01-01T12:21:58;17.30;99.90
13976;DHT22;7062;49.792;9.946;2023-01-01T12:24:29;17.40;99.90
13976;DHT22;7062;49.792;9.946;2023-01-01T12:27:16;17.30;99.90
13976;DHT22;7062;49.792;9.946;2023-01-01T12:38:28;16.70;99.90
13976;DHT22;7062;49.792;9.946;2023-01-01T12:44:24;16.50;99.90
13976;DHT22;7062;49.792;9.946;2023-01-01T12:47:10;16.40;99.90
13976;DHT22;7062;49.792;9.946;2023-01-01T12:55:56;16.30;99.90
13976;DHT22;7062;49.792;9.946;2023-01-01T12:58:25;16.40;99.90
13976;DHT22;7062;49.792;9.946;2023-01-01T13:01:05;16.40;99.90
13976;DHT22;7062;49.792;9.946;2023-01-01T13:03:50;16.30;99.90
13976;DHT22;7062;49.792;9.946;2023-01-01T13:06:19;16.30;99.90
13976;DHT22;7062;49.792;9.946;2023-01-01T13:08:51;16.30;99.90
13976;DHT22;7062;49.792;9.946;2023-01-01T13:11:18;16.30;99.90
13976;DHT22;7062;49.792;9.946;2023-01-01T13:13:44;16.30;99.90
13976;DHT22;7062;49.792;9.946;2023-01-01T13:16:11;16.20;99.90
13976;DHT22;7062;49.792;9.946;2023-01-01T13:18:38;16.20;99.90
13976;DHT22;7062;49.792;9.946;2023-01-01T13:21:20;16.30;99.90
13976;DHT22;7062;49.792;9.946;2023-01-01T13:23:47;16.20;99.90
13976;DHT22;7062;49.792;9.946;2023-01-01T13:28:43;16.20;99.90
13976;DHT22;7062;49.792;9.946;2023-01-01T13:31:08;16.20;99.90
13976;DHT22;7062;49.792;9.946;2023-01-01T13:33:34;16.20;99.90
13976;DHT22;7062;49.792;9.946;2023-01-01T13:41:30;16.10;99.90
13976;DHT22;7062;49.792;9.946;2023-01-01T13:55:07;16.10;99.90
13976;DHT22;7062;49.792;9.946;2023-01-01T13:57:55;16.00;99.90
13976;DHT22;7062;49.792;9.946;2023-01-01T14:03:15;16.00;99.90
13976;DHT22;7062;49.792;9.946;2023-01-01T14:08:31;16.00;99.90
13976;DHT22;7062;49.792;9.946;2023-01-01T14:10:57;16.00;99.90
13976;DHT22;7062;49.792;9.946;2023-01-01T14:13:27;16.00;99.90
13976;DHT22;7062;49.792;9.946;2023-01-01T14:15:55;16.00;99.90
13976;DHT22;7062;49.792;9.946;2023-01-01T14:18:29;16.00;99.90
13976;DHT22;7062;49.792;9.946;2023-01-01T14:20:56;15.90;99.90
13976;DHT22;7062;49.792;9.946;2023-01-01T14:24:01;16.00;99.90
13976;DHT22;7062;49.792;9.946;2023-01-01T14:26:30;15.90;99.90
13976;DHT22;7062;49.792;9.946;2023-01-01T14:28:58;15.90;99.90
13976;DHT22;7062;49.792;9.946;2023-01-01T14:31:29;15.80;99.90
13976;DHT22;7062;49.792;9.946;2023-01-01T14:33:55;15.80;99.90
13976;DHT22;7062;49.792;9.946;2023-01-01T14:36:22;15.80;99.90
13976;DHT22;7062;49.792;9.946;2023-01-01T14:38:50;15.80;99.90
13976;DHT22;7062;49.792;9.946;2023-01-01T14:41:32;15.80;99.90
13976;DHT22;7062;49.792;9.946;2023-01-01T14:44:21;15.80;99.90
13976;DHT22;7062;49.792;9.946;2023-01-01T14:46:49;15.80;99.90
13976;DHT22;7062;49.792;9.946;2023-01-01T14:49:28;15.90;99.90
13976;DHT22;7062;49.792;9.946;2023-01-01T14:52:24;15.90;99.90
13976;DHT22;7062;49.792;9.946;2023-01-01T14:54:52;15.90;99.90
13976;DHT22;7062;49.792;9.946;2023-01-01T14:57:25;15.90;99.90
13976;DHT22;7062;49.792;9.946;2023-01-01T14:59:52;15.80;99.90
13976;DHT22;7062;49.792;9.946;2023-01-01T15:02:23;15.80;99.90
13976;DHT22;7062;49.792;9.946;2023-01-01T15:04:49;15.90;99.90
13976;DHT22;7062;49.792;9.946;2023-01-01T15:07:23;15.80;99.90
13976;DHT22;7062;49.792;9.946;2023-01-01T15:09:51;15.80;99.90
13976;DHT22;7062;49.792;9.946;2023-01-01T15:12:19;15.80;99.90
13976;DHT22;7062;49.792;9.946;2023-01-01T15:14:47;15.80;99.90
13976;DHT22;7062;49.792;9.946;2023-01-01T15:17:15;15.80;99.90
13976;DHT22;7062;49.792;9.946;2023-01-01T15:19:43;15.80;99.90
13976;DHT22;7062;49.792;9.946;2023-01-01T15:22:10;15.80;99.90
13976;DHT22;7062;49.792;9.946;2023-01-01T15:24:37;15.80;99.90
13976;DHT22;7062;49.792;9.946;2023-01-01T15:27:05;15.70;99.90
13976;DHT22;7062;49.792;9.946;2023-01-01T15:29:32;15.60;99.90
13976;DHT22;7062;49.792;9.946;2023-01-01T15:32:00;15.60;99.90
13976;DHT22;7062;49.792;9.946;2023-01-01T15:34:31;15.60;99.90
13976;DHT22;7062;49.792;9.946;2023-01-01T15:37:07;15.60;99.90
13976;DHT22;7062;49.792;9.946;2023-01-01T15:39:54;15.50;99.90
13976;DHT22;7062;49.792;9.946;2023-01-01T15:44:48;15.50;99.90
13976;DHT22;7062;49.792;9.946;2023-01-01T15:47:15;15.50;99.90
13976;DHT22;7062;49.792;9.946;2023-01-01T15:49:41;15.50;99.90
13976;DHT22;7062;49.792;9.946;2023-01-01T15:52:23;15.50;99.90
13976;DHT22;7062;49.792;9.946;2023-01-01T15:54:51;15.40;99.90
13976;DHT22;7062;49.792;9.946;2023-01-01T15:57:20;15.40;99.90
13976;DHT22;7062;49.792;9.946;2023-01-01T15:59:47;15.50;99.90
13976;DHT22;7062;49.792;9.946;2023-01-01T16:02:20;15.40;99.90
13976;DHT22;7062;49.792;9.946;2023-01-01T16:04:47;15.40;99.90
13976;DHT22;7062;49.792;9.946;2023-01-01T16:07:19;15.30;99.90
13976;DHT22;7062;49.792;9.946;2023-01-01T16:09:48;15.30;99.90
13976;DHT22;7062;49.792;9.946;2023-01-01T16:12:14;15.30;99.90
13976;DHT22;7062;49.792;9.946;2023-01-01T16:14:40;15.30;99.90
13976;DHT22;7062;49.792;9.946;2023-01-01T16:17:12;15.30;99.90
13976;DHT22;7062;49.792;9.946;2023-01-01T16:19:39;15.20;99.90
13976;DHT22;7062;49.792;9.946;2023-01-01T16:22:05;15.20;99.90
13976;DHT22;7062;49.792;9.946;2023-01-01T16:24:35;15.20;99.90
13976;DHT22;7062;49.792;9.946;2023-01-01T16:27:01;15.20;99.90
13976;DHT22;7062;49.792;9.946;2023-01-01T16:29:26;15.10;99.90
13976;DHT22;7062;49.792;9.946;2023-01-01T16:31:52;15.20;99.90
13976;DHT22;7062;49.792;9.946;2023-01-01T16:34:18;15.10;99.90
13976;DHT22;7062;49.792;9.946;2023-01-01T16:36:44;15.10;99.90
13976;DHT22;7062;49.792;9.946;2023-01-01T16:39:10;15.00;99.90
13976;DHT22;7062;49.792;9.946;2023-01-01T16:41:39;14.90;99.90
13976;DHT22;7062;49.792;9.946;2023-01-01T16:44:05;14.80;99.90
13976;DHT22;7062;49.792;9.946;2023-01-01T16:46:30;14.80;99.90
13976;DHT22;7062;49.792;9.946;2023-01-01T16:48:58;14.80;99.90
13976;DHT22;7062;49.792;9.946;2023-01-01T16:51:27;14.80;99.90
13976;DHT22;7062;49.792;9.946;2023-01-01T16:53:53;14.70;99.90
13976;DHT22;7062;49.792;9.946;2023-01-01T16:56:19;14.60;99.90
13976;DHT22;7062;49.792;9.946;2023-01-01T16:58:45;14.50;99.90
13976;DHT22;7062;49.792;9.946;2023-01-01T17:01:11;14.40;99.90
13976;DHT22;7062;49.792;9.946;2023-01-01T17:03:36;14.30;99.90
13976;DHT22;7062;49.792;9.946;2023-01-01T17:06:06;14.30;99.90
13976;DHT22;7062;49.792;9.946;2023-01-01T17:08:33;14.30;99.90
13976;DHT22;7062;49.792;9.946;2023-01-01T17:11:10;14.30;99.90
13976;DHT22;7062;49.792;9.946;2023-01-01T17:13:45;14.30;99.90
13976;DHT22;7062;49.792;9.946;2023-01-01T17:16:11;14.30;99.90
13976;DHT22;7062;49.792;9.946;2023-01-01T17:18:37;14.20;99.90
13976;DHT22;7062;49.792;9.946;2023-01-01T17:21:05;14.30;99.90
13976;DHT22;7062;49.792;9.946;2023-01-01T17:23:35;14.20;99.90
13976;DHT22;7062;49.792;9.946;2023-01-01T17:26:27;14.20;99.90
13976;DHT22;7062;49.792;9.946;2023-01-01T17:28:53;14.10;99.90
13976;DHT22;7062;49.792;9.946;2023-01-01T17:31:19;14.00;99.90
13976;DHT22;7062;49.792;9.946;2023-01-01T17:33:45;14.00;99.90
13976;DHT22;7062;49.792;9.946;2023-01-01T17:36:12;13.90;99.90
13976;DHT22;7062;49.792;9.946;2023-01-01T17:38:38;14.00;99.90
13976;DHT22;7062;49.792;9.946;2023-01-01T17:41:08;13.80;99.90
13976;DHT22;7062;49.792;9.946;2023-01-01T17:43:36;13.80;99.90